createdAt,value
2018-09-28T00:00:29.717Z,6.20
2018-09-28T00:02:59.077Z,5.60
2018-09-28T00:05:27.414Z,5.30
2018-09-28T00:07:55.746Z,5.80
2018-09-28T00:10:24.066Z,5.60
2018-09-28T00:12:52.631Z,4.90
2018-09-28T00:15:21.975Z,4.73
2018-09-28T00:17:50.301Z,5.20
2018-09-28T00:20:19.632Z,4.83
2018-09-28T00:22:48.041Z,5.13
2018-09-28T00:25:16.365Z,5.03
2018-09-28T00:27:44.708Z,4.37
2018-09-28T00:30:13.046Z,5.00
2018-09-28T00:32:41.457Z,4.80
2018-09-28T00:35:09.806Z,4.87
2018-09-28T00:37:38.122Z,5.57
2018-09-28T00:40:06.613Z,5.07
2018-09-28T00:42:34.964Z,4.73
2018-09-28T00:45:03.338Z,4.77
2018-09-28T00:47:31.710Z,4.60
2018-09-28T00:50:00.182Z,5.07
2018-09-28T00:52:29.531Z,5.07
2018-09-28T00:54:57.912Z,5.17
2018-09-28T00:57:26.248Z,4.93
2018-09-28T00:59:54.587Z,4.97
2018-09-28T01:02:23.930Z,5.10
2018-09-28T01:04:52.281Z,4.97
2018-09-28T01:07:20.683Z,5.07
2018-09-28T01:09:49.638Z,4.60
2018-09-28T01:12:18.006Z,4.33
2018-09-28T01:14:46.371Z,4.20
2018-09-28T01:17:14.724Z,4.40
2018-09-28T01:19:43.074Z,4.93
2018-09-28T01:22:12.443Z,5.10
2018-09-28T01:24:40.777Z,4.60
2018-09-28T01:27:09.269Z,5.00
2018-09-28T01:29:37.630Z,4.57
2018-09-28T01:32:06.121Z,4.27
2018-09-28T01:34:34.502Z,4.80
2018-09-28T01:37:02.872Z,4.80
2018-09-28T01:39:31.230Z,3.80
2018-09-28T01:42:00.573Z,5.20
2018-09-28T01:44:28.933Z,4.53
2018-09-28T01:46:58.295Z,4.53
2018-09-28T01:49:26.645Z,4.93
2018-09-28T01:51:55.942Z,4.50
2018-09-28T01:54:24.298Z,4.30
2018-09-28T01:56:52.663Z,5.20
2018-09-28T01:59:21.024Z,4.80
2018-09-28T02:01:49.377Z,4.53
2018-09-28T02:04:17.742Z,4.20
2018-09-28T02:06:46.125Z,3.97
2018-09-28T02:09:14.469Z,4.00
2018-09-28T02:11:42.867Z,3.97
2018-09-28T02:14:11.245Z,3.90
2018-09-28T02:16:40.638Z,4.47
2018-09-28T02:19:08.998Z,4.93
2018-09-28T02:21:37.343Z,4.30
2018-09-28T02:24:05.686Z,4.67
2018-09-28T02:26:34.040Z,4.23
2018-09-28T02:29:02.406Z,4.73
2018-09-28T02:31:30.782Z,4.33
2018-09-28T02:33:59.129Z,4.30
2018-09-28T02:36:27.474Z,3.60
2018-09-28T02:38:55.852Z,3.60
2018-09-28T02:41:24.202Z,3.73
2018-09-28T02:43:52.536Z,4.17
2018-09-28T02:46:21.154Z,3.87
2018-09-28T02:48:49.478Z,3.67
2018-09-28T02:51:17.852Z,4.17
2018-09-28T02:53:46.219Z,4.63
2018-09-28T02:56:14.578Z,4.40
2018-09-28T02:58:43.938Z,3.63
2018-09-28T03:01:12.319Z,4.23
2018-09-28T03:03:40.625Z,4.30
2018-09-28T03:06:09.030Z,4.13
2018-09-28T03:08:37.394Z,3.90
2018-09-28T03:11:05.725Z,4.30
2018-09-28T03:13:34.101Z,4.30
2018-09-28T03:16:02.434Z,3.87
2018-09-28T03:18:30.789Z,3.73
2018-09-28T03:20:59.226Z,4.30
2018-09-28T03:23:27.586Z,3.73
2018-09-28T03:25:57.745Z,3.80
2018-09-28T03:28:26.878Z,3.70
2018-09-28T03:30:56.472Z,3.97
2018-09-28T03:33:25.915Z,3.60
2018-09-28T03:35:54.282Z,4.20
2018-09-28T03:38:23.707Z,3.77
2018-09-28T03:40:53.044Z,3.77
2018-09-28T03:43:21.441Z,4.03
2018-09-28T03:45:50.120Z,4.03
2018-09-28T03:48:18.594Z,3.37
2018-09-28T03:50:47.008Z,4.00
2018-09-28T03:53:15.363Z,4.30
2018-09-28T03:55:43.706Z,4.27
2018-09-28T03:58:13.770Z,3.87
2018-09-28T04:00:42.136Z,3.60
2018-09-28T04:03:11.482Z,3.80
2018-09-28T04:05:39.858Z,4.17
2018-09-28T04:08:08.237Z,3.40
2018-09-28T04:10:36.572Z,4.07
2018-09-28T04:13:04.918Z,3.50
2018-09-28T04:15:34.322Z,4.17
2018-09-28T04:18:02.670Z,3.70
2018-09-28T04:20:31.026Z,3.90
2018-09-28T04:22:59.437Z,3.80
2018-09-28T04:25:27.798Z,3.30
2018-09-28T04:27:56.223Z,3.40
2018-09-28T04:30:24.588Z,3.30
2018-09-28T04:32:52.998Z,3.20
2018-09-28T04:35:21.329Z,4.03
2018-09-28T04:37:49.731Z,3.73
2018-09-28T04:40:18.833Z,3.40
2018-09-28T04:42:47.214Z,3.70
2018-09-28T04:45:15.615Z,3.20
2018-09-28T04:47:44.000Z,3.30
2018-09-28T04:50:12.422Z,3.67
2018-09-28T04:52:40.787Z,3.50
2018-09-28T04:55:09.630Z,4.43
2018-09-28T04:57:37.964Z,4.57
2018-09-28T05:00:06.561Z,3.40
2018-09-28T05:02:34.919Z,3.80
2018-09-28T05:05:03.302Z,3.47
2018-09-28T05:07:31.683Z,3.40
2018-09-28T05:10:01.088Z,4.43
2018-09-28T05:12:30.451Z,3.63
2018-09-28T05:14:58.800Z,3.80
2018-09-28T05:17:27.176Z,3.87
2018-09-28T05:19:55.563Z,3.83
2018-09-28T05:22:23.990Z,3.40
2018-09-28T05:24:52.366Z,3.63
2018-09-28T05:27:20.726Z,3.57
2018-09-28T05:29:49.368Z,3.40
2018-09-28T05:32:17.927Z,3.70
2018-09-28T05:34:46.088Z,3.60
2018-09-28T05:37:14.460Z,3.90
2018-09-28T05:39:42.806Z,3.23
2018-09-28T05:42:12.150Z,3.87
2018-09-28T05:44:40.534Z,3.73
2018-09-28T05:47:08.930Z,3.90
2018-09-28T05:49:37.346Z,4.10
2018-09-28T05:52:06.781Z,3.27
2018-09-28T05:54:35.143Z,4.07
2018-09-28T05:57:04.045Z,3.40
2018-09-28T05:59:37.775Z,3.50
2018-09-28T06:02:13.091Z,3.80
2018-09-28T06:04:47.174Z,3.40
2018-09-28T06:07:16.327Z,3.30
2018-09-28T06:09:45.481Z,3.67
2018-09-28T06:12:15.814Z,4.37
2018-09-28T06:14:45.944Z,4.10
2018-09-28T06:17:15.575Z,3.70
2018-09-28T06:19:44.005Z,3.00
2018-09-28T06:22:12.392Z,3.50
2018-09-28T06:24:40.759Z,4.50
2018-09-28T06:27:09.083Z,4.07
2018-09-28T06:29:37.421Z,3.67
2018-09-28T06:32:07.504Z,3.70
2018-09-28T06:34:36.041Z,3.77
2018-09-28T06:37:04.375Z,4.37
2018-09-28T06:39:32.733Z,8.80
2018-09-28T06:42:01.194Z,17.43
2018-09-28T06:44:30.520Z,37.10
2018-09-28T06:46:58.914Z,51.17
2018-09-28T06:49:27.329Z,57.03
2018-09-28T06:51:55.700Z,55.63
2018-09-28T06:54:24.122Z,61.10
2018-09-28T06:56:52.538Z,56.83
2018-09-28T06:59:20.924Z,54.73
2018-09-28T07:01:49.470Z,53.23
2018-09-28T07:04:17.807Z,55.07
2018-09-28T07:06:46.171Z,53.00
2018-09-28T07:09:14.549Z,55.57
2018-09-28T07:11:42.974Z,52.63
2018-09-28T07:14:11.559Z,52.07
2018-09-28T07:16:41.240Z,48.97
2018-09-28T07:19:09.687Z,51.67
2018-09-28T07:21:39.047Z,51.43
2018-09-28T07:24:07.460Z,47.00
2018-09-28T07:26:35.807Z,49.63
2018-09-28T07:29:04.186Z,47.60
2018-09-28T07:31:32.636Z,47.50
2018-09-28T07:34:01.135Z,46.77
2018-09-28T07:36:29.627Z,49.13
2018-09-28T07:38:58.923Z,45.73
2018-09-28T07:41:27.306Z,46.07
2018-09-28T07:43:55.700Z,45.27
2018-09-28T07:46:24.105Z,43.40
2018-09-28T07:48:52.847Z,42.00
2018-09-28T07:51:22.182Z,41.23
2018-09-28T07:53:53.050Z,41.50
2018-09-28T07:56:21.514Z,45.40
2018-09-28T07:58:49.916Z,41.03
2018-09-28T08:01:18.269Z,41.30
2018-09-28T08:03:47.668Z,39.60
2018-09-28T08:06:16.022Z,41.43
2018-09-28T08:08:45.425Z,38.27
2018-09-28T08:11:14.159Z,40.77
2018-09-28T08:13:42.668Z,39.90
2018-09-28T08:16:11.059Z,41.40
2018-09-28T08:18:39.443Z,37.20
2018-09-28T08:21:07.823Z,40.33
2018-09-28T08:23:42.789Z,37.23
2018-09-28T08:26:11.173Z,37.67
2018-09-28T08:28:39.473Z,37.80
2018-09-28T08:31:07.857Z,33.50
2018-09-28T08:33:36.391Z,35.93
2018-09-28T08:36:04.744Z,38.33
2018-09-28T08:38:33.116Z,35.77
2018-09-28T08:41:01.523Z,34.97
2018-09-28T08:43:29.935Z,37.47
2018-09-28T08:45:58.266Z,37.47
2018-09-28T08:48:26.642Z,36.33
2018-09-28T08:50:55.023Z,34.43
2018-09-28T08:53:23.402Z,36.03
2018-09-28T08:55:51.823Z,33.20
2018-09-28T08:58:20.235Z,34.70
2018-09-28T09:00:48.622Z,31.37
2018-09-28T09:03:17.008Z,33.63
2018-09-28T09:05:46.379Z,32.10
2018-09-28T09:08:14.739Z,33.30
2018-09-28T09:10:43.118Z,30.47
2018-09-28T09:13:11.496Z,32.00
2018-09-28T09:15:39.907Z,31.20
2018-09-28T09:18:08.418Z,30.30
2018-09-28T09:20:36.748Z,31.73
2018-09-28T09:23:05.121Z,31.93
2018-09-28T09:25:33.494Z,30.00
2018-09-28T09:28:01.883Z,32.80
2018-09-28T09:30:31.243Z,28.67
2018-09-28T09:32:59.659Z,30.10
2018-09-28T09:35:28.123Z,28.83
2018-09-28T09:37:57.483Z,29.00
2018-09-28T09:40:25.934Z,28.50
2018-09-28T09:42:54.298Z,30.33
2018-09-28T09:45:23.913Z,30.27
2018-09-28T09:47:53.237Z,30.70
2018-09-28T09:50:21.626Z,26.37
2018-09-28T09:52:50.010Z,28.10
2018-09-28T09:55:18.354Z,29.00
2018-09-28T09:57:46.804Z,28.83
2018-09-28T10:00:20.452Z,28.17
2018-09-28T10:02:54.238Z,27.37
2018-09-28T10:05:22.702Z,27.73
2018-09-28T10:07:52.070Z,25.50
2018-09-28T10:10:20.518Z,27.30
2018-09-28T10:12:48.999Z,27.13
2018-09-28T10:15:17.492Z,28.90
2018-09-28T10:17:45.863Z,27.60
2018-09-28T10:20:14.254Z,26.20
2018-09-28T10:22:42.639Z,23.97
2018-09-28T10:25:11.026Z,25.97
2018-09-28T10:27:39.503Z,26.13
2018-09-28T10:30:07.917Z,25.70
2018-09-28T10:32:36.354Z,24.40
2018-09-28T10:35:04.792Z,23.90
2018-09-28T10:37:33.176Z,28.20
2018-09-28T10:40:01.613Z,25.40
2018-09-28T10:42:31.033Z,26.97
2018-09-28T10:44:59.414Z,26.53
2018-09-28T10:47:27.791Z,23.60
2018-09-28T10:49:56.138Z,23.70
2018-09-28T10:52:24.760Z,25.50
2018-09-28T10:54:52.975Z,24.47
2018-09-28T10:57:21.373Z,25.07
2018-09-28T10:59:50.738Z,24.20
2018-09-28T11:02:19.128Z,23.50
2018-09-28T11:04:47.572Z,24.13
2018-09-28T11:07:15.843Z,22.23
2018-09-28T11:09:44.236Z,23.27
2018-09-28T11:12:12.882Z,22.20
2018-09-28T11:14:41.451Z,24.10
2018-09-28T11:17:09.832Z,23.90
2018-09-28T11:19:38.215Z,23.17
2018-09-28T11:22:06.706Z,21.67
2018-09-28T11:24:35.047Z,22.80
2018-09-28T11:27:03.460Z,23.67
2018-09-28T11:29:31.803Z,23.30
2018-09-28T11:32:00.227Z,23.40
2018-09-28T11:34:28.640Z,23.30
2018-09-28T11:36:57.033Z,22.27
2018-09-28T11:39:25.474Z,23.00
2018-09-28T11:41:53.770Z,20.67
2018-09-28T11:44:22.161Z,22.70
2018-09-28T11:46:50.603Z,21.17
2018-09-28T11:49:18.964Z,22.63
2018-09-28T11:51:47.441Z,22.73
2018-09-28T11:54:15.734Z,21.40
2018-09-28T11:56:44.090Z,20.27
2018-09-28T11:59:12.500Z,21.00
2018-09-28T12:01:41.871Z,21.27
2018-09-28T12:04:10.250Z,19.80
2018-09-28T12:06:38.658Z,22.10
2018-09-28T12:09:09.058Z,19.37
2018-09-28T12:11:37.426Z,21.10
2018-09-28T12:14:05.808Z,19.07
2018-09-28T12:16:34.184Z,20.30
2018-09-28T12:19:03.466Z,20.70
2018-09-28T12:21:31.950Z,19.33
2018-09-28T12:24:00.550Z,21.87
2018-09-28T12:26:28.949Z,18.23
2018-09-28T12:28:57.372Z,19.50
2018-09-28T12:31:25.832Z,18.50
2018-09-28T12:33:54.195Z,18.37
2018-09-28T12:36:22.640Z,18.40
2018-09-28T12:38:50.942Z,18.47
2018-09-28T12:41:19.370Z,18.37
2018-09-28T12:43:48.726Z,18.70
2018-09-28T12:46:17.128Z,17.87
2018-09-28T12:48:45.552Z,17.70
2018-09-28T12:51:13.894Z,19.00
2018-09-28T12:53:42.351Z,19.03
2018-09-28T12:56:10.674Z,18.70
2018-09-28T12:58:39.050Z,19.27
2018-09-28T13:01:07.591Z,17.90
2018-09-28T13:03:35.849Z,16.90
2018-09-28T13:06:04.243Z,17.83
2018-09-28T13:08:33.701Z,17.77
2018-09-28T13:11:02.023Z,17.83
2018-09-28T13:13:31.414Z,16.30
2018-09-28T13:15:59.867Z,17.50
2018-09-28T13:18:28.311Z,15.83
2018-09-28T13:20:56.718Z,16.97
2018-09-28T13:23:25.098Z,17.97
2018-09-28T13:25:53.514Z,17.57
2018-09-28T13:28:21.977Z,18.10
2018-09-28T13:30:50.442Z,17.10
2018-09-28T13:33:18.753Z,16.20
2018-09-28T13:35:48.144Z,16.07
2018-09-28T13:38:16.525Z,16.60
2018-09-28T13:40:44.976Z,15.27
2018-09-28T13:43:13.386Z,16.73
2018-09-28T13:45:41.811Z,17.20
2018-09-28T13:48:10.308Z,16.80
2018-09-28T13:50:38.771Z,16.73
2018-09-28T13:53:07.162Z,16.30
2018-09-28T13:55:35.571Z,15.67
2018-09-28T13:58:03.963Z,14.93
2018-09-28T14:00:32.390Z,17.07
2018-09-28T14:03:01.719Z,16.10
2018-09-28T14:05:30.390Z,16.17
2018-09-28T14:07:59.877Z,16.03
2018-09-28T14:10:28.322Z,15.70
2018-09-28T14:12:56.660Z,15.00
2018-09-28T14:15:25.094Z,15.53
2018-09-28T14:17:53.490Z,15.47
2018-09-28T14:20:21.933Z,15.80
2018-09-28T14:22:50.337Z,14.50
2018-09-28T14:25:18.697Z,15.40
2018-09-28T14:27:47.155Z,13.90
2018-09-28T14:30:15.558Z,15.13
2018-09-28T14:32:43.982Z,15.50
2018-09-28T14:35:12.356Z,15.77
2018-09-28T14:37:40.758Z,15.20
2018-09-28T14:40:10.341Z,14.53
2018-09-28T14:42:39.163Z,15.33
2018-09-28T14:48:09.696Z,14.57
2018-09-28T14:50:38.098Z,14.30
2018-09-28T14:53:06.711Z,14.20
2018-09-28T14:55:35.110Z,13.50
2018-09-28T14:58:03.470Z,15.30
2018-09-28T15:00:31.896Z,14.87
2018-09-28T15:03:00.214Z,14.10
2018-09-28T15:05:29.561Z,13.67
2018-09-28T15:07:57.941Z,13.30
2018-09-28T15:10:26.454Z,13.63
2018-09-28T15:12:54.737Z,15.50
2018-09-28T15:15:23.202Z,13.93
2018-09-28T15:17:51.554Z,13.93
2018-09-28T15:20:19.898Z,13.10
2018-09-28T15:22:48.246Z,12.57
2018-09-28T15:25:16.578Z,14.20
2018-09-28T15:27:44.975Z,13.87
2018-09-28T15:30:13.369Z,13.90
2018-09-28T15:32:41.730Z,13.60
2018-09-28T15:35:10.149Z,14.63
2018-09-28T15:37:38.447Z,14.00
2018-09-28T15:40:07.865Z,13.50
2018-09-28T15:42:36.210Z,12.97
2018-09-28T15:45:04.620Z,13.20
2018-09-28T15:47:34.001Z,12.60
2018-09-28T15:50:02.445Z,13.90
2018-09-28T15:52:30.838Z,12.73
2018-09-28T15:55:00.235Z,12.67
2018-09-28T15:57:28.625Z,11.50
2018-09-28T15:59:57.014Z,14.17
2018-09-28T16:02:25.420Z,12.40
2018-09-28T16:04:53.807Z,13.40
2018-09-28T16:07:22.235Z,12.70
2018-09-28T16:09:50.640Z,12.10
2018-09-28T16:12:19.193Z,12.43
2018-09-28T16:14:47.548Z,12.40
2018-09-28T16:17:15.942Z,13.37
2018-09-28T16:19:44.276Z,12.67
2018-09-28T16:22:13.712Z,12.23
2018-09-28T16:24:42.107Z,12.43
2018-09-28T16:27:15.394Z,12.50
2018-09-28T16:29:44.038Z,10.90
2018-09-28T16:32:12.421Z,17.60
2018-09-28T16:34:40.815Z,17.97
2018-09-28T16:37:09.182Z,21.37
2018-09-28T16:39:37.555Z,32.87
2018-09-28T16:42:06.013Z,31.90
2018-09-28T16:44:34.369Z,33.37
2018-09-28T16:47:02.941Z,35.10
2018-09-28T16:49:32.314Z,36.67
2018-09-28T16:52:00.678Z,37.20
2018-09-28T16:54:29.171Z,36.03
2018-09-28T16:56:58.546Z,35.17
2018-09-28T16:59:27.026Z,35.20
2018-09-28T17:01:55.527Z,34.27
2018-09-28T17:04:23.926Z,34.60
2018-09-28T17:06:52.326Z,34.07
2018-09-28T17:09:20.728Z,33.80
2018-09-28T17:11:49.120Z,33.07
2018-09-28T17:14:17.497Z,32.13
2018-09-28T17:16:45.866Z,29.30
2018-09-28T17:19:14.218Z,31.07
2018-09-28T17:21:42.585Z,33.30
2018-09-28T17:24:11.362Z,32.07
2018-09-28T17:26:39.738Z,29.60
2018-09-28T17:29:08.118Z,29.17
2018-09-28T17:31:36.500Z,29.53
2018-09-28T17:34:04.967Z,30.57
2018-09-28T17:36:33.448Z,29.37
2018-09-28T17:39:01.914Z,27.50
2018-09-28T17:41:30.526Z,28.90
2018-09-28T17:43:59.034Z,28.57
2018-09-28T17:46:27.592Z,28.40
2018-09-28T17:48:55.997Z,28.93
2018-09-28T17:51:24.409Z,26.67
2018-09-28T17:53:52.823Z,28.03
2018-09-28T17:56:21.150Z,28.10
2018-09-28T17:58:49.566Z,29.80
2018-09-28T18:01:17.959Z,27.70
2018-09-28T18:03:46.393Z,26.70
2018-09-28T18:06:15.169Z,27.90
2018-09-28T18:08:43.494Z,25.97
2018-09-28T18:11:13.023Z,26.47
2018-09-28T18:13:41.459Z,28.70
2018-09-28T18:16:09.866Z,25.80
2018-09-28T18:18:38.269Z,24.60
2018-09-28T18:21:06.765Z,25.93
2018-09-28T18:23:35.231Z,24.77
2018-09-28T18:26:04.617Z,26.20
2018-09-28T18:28:33.199Z,24.97
2018-09-28T18:31:01.574Z,23.90
2018-09-28T18:33:29.988Z,23.47
2018-09-28T18:35:58.315Z,25.50
2018-09-28T18:38:26.707Z,23.37
2018-09-28T18:40:55.118Z,24.47
2018-09-28T18:43:24.035Z,23.47
2018-09-28T18:45:52.471Z,22.87
2018-09-28T18:48:20.846Z,22.90
2018-09-28T18:50:49.271Z,23.67
2018-09-28T18:53:17.675Z,24.90
2018-09-28T18:55:46.023Z,23.67
2018-09-28T19:00:49.303Z,21.10
2018-09-28T19:03:17.724Z,22.83
2018-09-28T19:05:46.142Z,20.67
2018-09-28T19:08:14.471Z,23.67
2018-09-28T19:10:42.902Z,20.60
2018-09-28T19:13:11.326Z,22.40
2018-09-28T19:15:39.702Z,20.57
2018-09-28T19:18:08.071Z,21.73
2018-09-28T19:20:36.424Z,21.30
2018-09-28T19:23:04.791Z,20.53
2018-09-28T19:25:33.308Z,21.50
2018-09-28T19:28:02.738Z,19.33
2018-09-28T19:30:32.347Z,20.63
2018-09-28T19:33:00.695Z,18.87
2018-09-28T19:35:29.128Z,19.10
2018-09-28T19:37:57.527Z,19.70
2018-09-28T19:40:25.911Z,20.00
2018-09-28T19:42:54.280Z,20.50
2018-09-28T19:45:22.607Z,18.97
2018-09-28T19:47:50.999Z,18.90
2018-09-28T19:50:19.347Z,18.07
2018-09-28T19:52:47.998Z,19.10
2018-09-28T19:55:16.687Z,17.87
2018-09-28T19:57:46.047Z,17.00
2018-09-28T20:00:14.388Z,19.40
2018-09-28T20:02:42.669Z,19.03
2018-09-28T20:05:11.159Z,18.70
2018-09-28T20:07:40.494Z,16.73
2018-09-28T20:10:08.810Z,17.73
2018-09-28T20:12:37.330Z,19.43
2018-09-28T20:15:05.772Z,17.93
2018-09-28T20:17:34.089Z,16.33
2018-09-28T20:20:02.733Z,18.60
2018-09-28T20:22:31.082Z,17.00
2018-09-28T20:24:59.484Z,16.60
2018-09-28T20:27:28.363Z,15.83
2018-09-28T20:29:56.729Z,17.87
2018-09-28T20:32:25.082Z,17.63
2018-09-28T20:34:53.429Z,15.47
2018-09-28T20:37:21.802Z,16.57
2018-09-28T20:39:50.183Z,16.60
2018-09-28T20:42:18.602Z,16.07
2018-09-28T20:44:46.954Z,14.20
2018-09-28T20:47:15.359Z,16.50
2018-09-28T20:49:43.731Z,16.93
2018-09-28T20:52:12.089Z,14.33
2018-09-28T20:54:40.426Z,14.50
2018-09-28T20:57:09.786Z,14.83
2018-09-28T20:59:38.138Z,15.83
2018-09-28T21:02:06.490Z,14.77
2018-09-28T21:04:34.830Z,17.53
2018-09-28T21:07:03.199Z,15.50
2018-09-28T21:09:31.523Z,14.67
2018-09-28T21:11:59.854Z,15.30
2018-09-28T21:14:28.220Z,14.70
2018-09-28T21:16:57.577Z,14.60
2018-09-28T21:19:25.994Z,17.20
2018-09-28T21:21:54.309Z,14.37
2018-09-28T21:24:22.641Z,15.40
2018-09-28T21:26:50.988Z,15.00
2018-09-28T21:29:20.358Z,14.77
2018-09-28T21:31:48.678Z,13.57
2018-09-28T21:34:17.109Z,14.17
2018-09-28T21:36:45.424Z,13.37
2018-09-28T21:39:14.821Z,13.27
2018-09-28T21:41:43.124Z,14.30
2018-09-28T21:44:11.530Z,14.77
2018-09-28T21:46:39.845Z,13.67
2018-09-28T21:49:08.185Z,13.97
2018-09-28T21:51:36.525Z,14.13
2018-09-28T21:54:04.855Z,13.50
2018-09-28T21:56:33.213Z,13.57
2018-09-28T21:59:01.584Z,12.87
2018-09-28T22:01:29.929Z,12.80
2018-09-28T22:03:58.270Z,13.03
2018-09-28T22:06:27.669Z,13.13
2018-09-28T22:08:56.009Z,13.57
2018-09-28T22:11:24.326Z,13.27
2018-09-28T22:13:52.698Z,12.67
2018-09-28T22:16:20.966Z,13.97
2018-09-28T22:18:49.328Z,12.50
2018-09-28T22:21:17.690Z,12.77
2018-09-28T22:23:46.055Z,13.87
2018-09-28T22:26:14.382Z,12.60
2018-09-28T22:28:42.709Z,12.10
2018-09-28T22:31:11.002Z,13.93
2018-09-28T22:33:39.366Z,12.60
2018-09-28T22:36:08.805Z,11.70
2018-09-28T22:38:37.142Z,13.50
2018-09-28T22:41:05.629Z,12.03
2018-09-28T22:43:35.000Z,12.37
2018-09-28T22:46:03.310Z,11.30
2018-09-28T22:48:31.695Z,12.07
2018-09-28T22:51:00.046Z,12.87
2018-09-28T22:53:28.366Z,12.63
2018-09-28T22:55:56.665Z,12.83
2018-09-28T22:58:26.061Z,12.53
2018-09-28T23:00:54.371Z,11.23
2018-09-28T23:03:22.886Z,11.07
2018-09-28T23:05:51.194Z,11.57
2018-09-28T23:08:19.507Z,11.97
2018-09-28T23:10:49.861Z,11.67
2018-09-28T23:13:18.153Z,10.50
2018-09-28T23:15:46.642Z,12.40
2018-09-28T23:18:14.993Z,10.43
2018-09-28T23:20:43.319Z,11.90
2018-09-28T23:23:11.620Z,10.40
2018-09-28T23:25:39.942Z,10.20
2018-09-28T23:28:08.298Z,10.87
2018-09-28T23:30:36.623Z,10.87
2018-09-28T23:33:04.967Z,11.97
2018-09-28T23:35:34.330Z,10.60
2018-09-28T23:38:02.644Z,10.50
2018-09-28T23:40:30.970Z,10.97
2018-09-28T23:42:59.290Z,11.07
2018-09-28T23:45:27.613Z,9.67
2018-09-28T23:47:55.945Z,10.23
2018-09-28T23:50:24.265Z,11.93
2018-09-28T23:52:53.534Z,10.73
2018-09-28T23:55:21.858Z,10.57
2018-09-28T23:57:51.190Z,9.07
